Time;durP1;ratioP1;P1;durP2;ratioP2;P2;SDS_P1;SDS_P2;PMS_P1;PMS_P2;Temp;Humidity;BMP_temperature;BMP_pressure;BME280_temperature;BME280_humidity;BME280_pressure;Samples;Min_cycle;Max_cycle;Signal;HPM_P1;HPM_P2
2021/01/23 00:02:04;;;;;;;21.63;14.00;;;1.70;99.90;;;;;;6948710;28;20514;-65
2021/01/23 00:05:25;;;;;;;23.10;13.50;;;1.70;99.90;;;;;;6949491;28;20400;-64
2021/01/23 00:08:46;;;;;;;22.27;13.65;;;1.70;99.90;;;;;;6942825;28;20975;-65
2021/01/23 00:12:07;;;;;;;24.80;13.45;;;1.70;99.90;;;;;;6936515;28;20436;-65
2021/01/23 00:15:28;;;;;;;20.60;13.30;;;1.70;99.90;;;;;;6965975;28;20486;-65
2021/01/23 00:18:49;;;;;;;22.25;13.40;;;1.60;99.90;;;;;;6954345;28;20406;-65
2021/01/23 00:22:10;;;;;;;21.27;12.95;;;1.60;99.90;;;;;;6950899;28;20415;-63
2021/01/23 00:25:31;;;;;;;21.42;12.80;;;1.60;99.90;;;;;;6959996;28;20397;-63
2021/01/23 00:28:51;;;;;;;22.17;13.20;;;1.70;99.90;;;;;;6958524;28;20893;-64
2021/01/23 00:32:12;;;;;;;23.75;13.73;;;1.60;99.90;;;;;;6962899;28;20400;-61
2021/01/23 00:35:33;;;;;;;21.27;13.20;;;1.60;99.90;;;;;;6957956;28;20404;-65
2021/01/23 00:38:54;;;;;;;22.50;13.20;;;1.50;99.90;;;;;;6947696;28;20399;-64
2021/01/23 00:42:15;;;;;;;22.50;13.68;;;1.50;99.90;;;;;;6946674;28;20417;-65
2021/01/23 00:45:36;;;;;;;22.30;13.60;;;1.50;99.90;;;;;;6944311;28;20400;-64
2021/01/23 00:48:57;;;;;;;23.10;13.80;;;1.50;99.90;;;;;;6953694;28;20391;-64
2021/01/23 00:52:18;;;;;;;24.47;14.53;;;1.50;99.90;;;;;;6945917;28;20883;-63
2021/01/23 00:55:40;;;;;;;25.95;15.00;;;1.50;99.90;;;;;;6943774;28;20423;-64
2021/01/23 00:59:00;;;;;;;26.00;16.25;;;1.40;99.90;;;;;;6945138;28;20403;-64
2021/01/23 01:02:22;;;;;;;26.40;15.17;;;1.40;99.90;;;;;;6946557;28;20413;-63
2021/01/23 01:05:43;;;;;;;27.67;15.80;;;1.50;99.90;;;;;;6944916;28;20533;-65
2021/01/23 01:09:04;;;;;;;28.17;15.57;;;1.40;99.90;;;;;;6948143;28;20440;-65
2021/01/23 01:12:24;;;;;;;26.27;16.50;;;1.40;99.90;;;;;;6966993;28;20442;-65
2021/01/23 01:15:45;;;;;;;25.95;16.00;;;1.40;99.90;;;;;;6951866;28;20760;-65
2021/01/23 01:19:06;;;;;;;24.88;15.65;;;1.40;99.90;;;;;;6943325;28;20405;-65
2021/01/23 01:22:28;;;;;;;26.45;15.30;;;1.50;99.90;;;;;;6943574;28;20411;-63
2021/01/23 01:25:49;;;;;;;26.20;15.35;;;1.40;99.90;;;;;;6934675;28;20421;-64
2021/01/23 01:29:10;;;;;;;26.33;15.10;;;1.40;99.90;;;;;;6935796;28;20455;-65
2021/01/23 01:32:31;;;;;;;26.17;15.80;;;1.40;99.90;;;;;;6945447;28;20400;-65
2021/01/23 01:35:52;;;;;;;27.13;15.80;;;1.50;99.90;;;;;;6962753;28;21023;-65
2021/01/23 01:39:12;;;;;;;29.88;16.48;;;1.50;99.90;;;;;;6957300;28;20408;-65
2021/01/23 01:42:33;;;;;;;27.23;15.70;;;1.50;99.90;;;;;;6943987;28;20735;-63
2021/01/23 01:45:55;;;;;;;24.90;15.50;;;1.60;99.90;;;;;;6956800;28;20403;-64
2021/01/23 01:49:15;;;;;;;29.05;16.02;;;1.70;99.90;;;;;;6940044;28;20914;-63
2021/01/23 01:52:37;;;;;;;27.75;15.90;;;1.60;99.90;;;;;;6947575;28;20494;-63
2021/01/23 01:55:59;;;;;;;24.65;14.98;;;1.60;99.90;;;;;;6943071;28;20422;-65
2021/01/23 01:59:20;;;;;;;25.55;15.50;;;1.60;99.90;;;;;;6946386;28;20512;-65
2021/01/23 02:02:54;;;;;;;25.77;15.73;;;1.40;99.90;;;;;;6954713;28;20554;-65
2021/01/23 02:06:24;;;;;;;27.33;16.25;;;1.40;99.90;;;;;;6944118;28;20836;-65
2021/01/23 02:09:51;;;;;;;28.70;16.60;;;1.40;99.90;;;;;;6938157;28;20406;-65
2021/01/23 02:13:18;;;;;;;25.98;16.40;;;1.50;99.90;;;;;;6951085;28;20419;-64
2021/01/23 02:16:45;;;;;;;27.17;16.80;;;1.50;99.90;;;;;;6930291;28;20499;-65
2021/01/23 02:20:28;;;;;;;27.52;16.42;;;1.50;99.90;;;;;;6958241;28;20441;-64
2021/01/23 02:23:50;;;;;;;30.25;17.30;;;1.50;99.90;;;;;;6941795;28;20485;-63
2021/01/23 02:27:28;;;;;;;31.08;17.15;;;1.50;99.90;;;;;;6945327;28;20405;-65
2021/01/23 02:31:12;;;;;;;33.45;17.17;;;1.50;99.90;;;;;;6954098;28;20405;-64
2021/01/23 02:34:34;;;;;;;28.90;17.35;;;1.50;99.90;;;;;;6945355;28;20401;-64
2021/01/23 02:37:55;;;;;;;30.60;17.52;;;1.50;99.90;;;;;;6937479;28;20479;-65
2021/01/23 02:41:16;;;;;;;29.30;17.60;;;1.60;99.90;;;;;;6942704;28;20421;-65
2021/01/23 02:44:37;;;;;;;31.45;17.95;;;1.50;99.90;;;;;;6940095;28;20398;-62
2021/01/23 02:47:58;;;;;;;29.20;17.90;;;1.60;99.90;;;;;;6948018;28;20403;-65
2021/01/23 02:51:23;;;;;;;29.08;17.77;;;1.60;99.90;;;;;;6949249;28;20412;-65
2021/01/23 02:54:53;;;;;;;30.95;17.85;;;1.60;99.90;;;;;;6942347;28;20812;-64
2021/01/23 02:58:20;;;;;;;27.17;16.95;;;1.60;99.90;;;;;;6944741;28;20461;-63
2021/01/23 03:01:43;;;;;;;28.73;17.15;;;1.70;99.90;;;;;;6930272;28;20450;-64
2021/01/23 03:05:04;;;;;;;29.70;17.83;;;1.60;99.90;;;;;;6943069;28;20466;-65
2021/01/23 03:08:25;;;;;;;28.40;17.60;;;1.70;99.90;;;;;;6927880;28;20418;-65
2021/01/23 03:11:47;;;;;;;30.20;16.93;;;1.60;99.90;;;;;;6951815;28;20403;-65
2021/01/23 03:15:08;;;;;;;30.85;17.00;;;1.60;99.90;;;;;;6950424;28;20978;-64
2021/01/23 03:18:29;;;;;;;30.77;17.00;;;1.70;99.90;;;;;;6957044;28;20846;-64
2021/01/23 03:21:51;;;;;;;30.07;17.70;;;1.60;99.90;;;;;;6954353;28;20407;-64
2021/01/23 03:25:12;;;;;;;31.37;18.20;;;1.50;99.90;;;;;;6945892;28;20436;-64
2021/01/23 03:28:33;;;;;;;29.50;16.67;;;1.50;99.90;;;;;;6957016;28;20949;-63
2021/01/23 03:31:54;;;;;;;31.60;17.70;;;1.60;99.90;;;;;;6947629;28;20524;-64
2021/01/23 03:35:17;;;;;;;32.10;17.10;;;1.60;99.90;;;;;;6941965;28;20438;-64
2021/01/23 03:38:38;;;;;;;27.58;17.45;;;1.60;99.90;;;;;;6939086;28;20763;-65
2021/01/23 03:41:58;;;;;;;29.90;17.85;;;1.60;99.90;;;;;;6943124;28;20411;-64
2021/01/23 03:45:19;;;;;;;28.83;17.20;;;1.50;99.90;;;;;;6941121;28;20632;-63
2021/01/23 03:48:40;;;;;;;27.77;17.00;;;1.50;99.90;;;;;;6933619;28;20406;-64
2021/01/23 03:52:01;;;;;;;31.40;18.08;;;1.50;99.90;;;;;;6949744;28;20900;-65
2021/01/23 03:55:22;;;;;;;29.42;17.13;;;1.50;99.90;;;;;;6931450;28;20403;-65
2021/01/23 03:58:43;;;;;;;30.40;18.23;;;1.50;99.90;;;;;;6967514;28;20444;-64
2021/01/23 04:02:04;;;;;;;36.05;19.80;;;1.40;99.90;;;;;;6933900;28;20473;-62
2021/01/23 04:05:25;;;;;;;33.00;19.38;;;1.50;99.90;;;;;;6937388;28;20451;-63
2021/01/23 04:08:46;;;;;;;29.40;18.33;;;1.40;99.90;;;;;;6954076;28;20749;-62
2021/01/23 04:12:07;;;;;;;32.05;17.65;;;1.50;99.90;;;;;;6942922;28;20405;-64
2021/01/23 04:15:29;;;;;;;34.33;18.60;;;1.50;99.90;;;;;;6958437;28;20457;-64
2021/01/23 04:18:50;;;;;;;32.40;18.83;;;1.60;99.90;;;;;;6944728;28;20409;-64
2021/01/23 04:22:11;;;;;;;29.23;17.30;;;1.60;99.90;;;;;;6954461;28;20753;-63
2021/01/23 04:25:32;;;;;;;31.10;17.80;;;1.50;99.90;;;;;;6958156;28;20979;-62
2021/01/23 04:28:53;;;;;;;31.15;18.02;;;1.40;99.90;;;;;;6941070;28;20783;-63
2021/01/23 04:32:14;;;;;;;29.40;17.73;;;1.40;99.90;;;;;;6928748;28;20470;-64
2021/01/23 04:35:35;;;;;;;32.38;19.45;;;1.40;99.90;;;;;;6958959;28;20531;-61
2021/01/23 04:38:56;;;;;;;31.23;18.70;;;1.50;99.90;;;;;;6958124;28;20401;-63
2021/01/23 04:42:17;;;;;;;31.92;18.63;;;1.40;99.90;;;;;;6958759;28;20881;-64
2021/01/23 04:45:38;;;;;;;31.80;17.92;;;1.40;99.90;;;;;;6953198;28;20405;-64
2021/01/23 04:48:59;;;;;;;33.25;18.30;;;1.40;99.90;;;;;;6969494;28;20399;-64
2021/01/23 04:52:20;;;;;;;32.78;18.83;;;1.40;99.90;;;;;;6937652;28;20883;-63
2021/01/23 04:55:43;;;;;;;33.67;19.05;;;1.30;99.90;;;;;;6946171;28;20403;-64
2021/01/23 04:59:03;;;;;;;33.78;20.00;;;1.50;99.90;;;;;;6948696;28;20410;-64
2021/01/23 05:02:25;;;;;;;33.35;18.77;;;1.50;99.90;;;;;;6932818;28;20844;-65
2021/01/23 05:06:03;;;;;;;35.90;19.88;;;1.40;99.90;;;;;;6944616;28;20490;-63
2021/01/23 05:09:27;;;;;;;37.67;20.90;;;1.40;99.90;;;;;;6947772;28;20428;-63
2021/01/23 05:12:53;;;;;;;33.60;19.17;;;1.50;99.90;;;;;;6934532;28;20400;-64
2021/01/23 05:16:24;;;;;;;38.17;19.67;;;1.50;99.90;;;;;;6941830;28;20710;-64
2021/01/23 05:19:45;;;;;;;35.15;20.15;;;1.60;99.90;;;;;;6964163;28;20508;-62
2021/01/23 05:23:13;;;;;;;35.42;20.15;;;1.50;99.90;;;;;;6953284;28;20428;-64
2021/01/23 05:26:35;;;;;;;33.85;19.30;;;1.50;99.90;;;;;;6942443;28;20923;-63
2021/01/23 05:30:01;;;;;;;34.65;18.98;;;1.50;99.90;;;;;;6939195;28;20391;-62
2021/01/23 05:33:27;;;;;;;34.85;19.75;;;1.40;99.90;;;;;;6946434;28;20417;-63
2021/01/23 05:36:48;;;;;;;30.10;18.48;;;1.50;99.90;;;;;;6938348;28;20735;-63
2021/01/23 05:40:09;;;;;;;34.47;19.30;;;1.40;99.90;;;;;;6957187;28;20955;-63
2021/01/23 05:43:40;;;;;;;36.63;18.60;;;1.30;99.90;;;;;;6931493;28;20765;-63
2021/01/23 05:47:01;;;;;;;36.97;19.60;;;1.20;99.90;;;;;;6924993;28;20396;-64
2021/01/23 05:50:22;;;;;;;36.13;20.17;;;1.30;99.90;;;;;;6945068;28;20405;-62
2021/01/23 05:53:43;;;;;;;37.40;20.90;;;1.30;99.90;;;;;;6945041;28;20452;-63
2021/01/23 05:57:04;;;;;;;38.85;20.30;;;1.30;99.90;;;;;;6941358;28;20417;-62
2021/01/23 06:00:26;;;;;;;36.90;20.58;;;1.40;99.90;;;;;;6926395;28;20434;-61
2021/01/23 06:03:50;;;;;;;40.30;21.60;;;1.50;99.90;;;;;;6921471;28;20474;-64
2021/01/23 06:07:11;;;;;;;37.70;21.15;;;1.50;99.90;;;;;;6936446;28;20419;-63
2021/01/23 06:10:37;;;;;;;39.78;20.00;;;1.50;99.90;;;;;;6922942;28;20426;-64
2021/01/23 06:13:58;;;;;;;38.38;21.65;;;1.40;99.90;;;;;;6952174;28;20568;-65
2021/01/23 06:17:47;;;;;;;38.50;21.27;;;1.30;99.90;;;;;;6924406;28;20407;-62
2021/01/23 06:21:08;;;;;;;35.20;20.73;;;1.40;99.90;;;;;;6938892;28;20410;-63
2021/01/23 06:24:32;;;;;;;35.72;19.88;;;1.50;99.90;;;;;;6932651;28;20393;-63
2021/01/23 06:27:53;;;;;;;38.60;20.90;;;1.50;99.90;;;;;;6922534;28;20784;-63
2021/01/23 06:31:23;;;;;;;34.50;20.23;;;1.60;99.90;;;;;;6922007;28;20493;-62
2021/01/23 06:34:50;;;;;;;39.33;21.10;;;1.60;99.90;;;;;;6929310;28;20940;-62
2021/01/23 06:38:12;;;;;;;39.15;20.88;;;1.50;99.90;;;;;;6910737;28;20483;-63
2021/01/23 06:41:37;;;;;;;39.10;21.10;;;1.40;99.90;;;;;;6926529;28;21001;-63
2021/01/23 06:45:11;;;;;;;39.75;20.88;;;1.50;99.90;;;;;;6923197;28;20494;-63
2021/01/23 06:48:33;;;;;;;36.63;20.20;;;1.50;99.90;;;;;;6928419;28;20791;-64
2021/01/23 06:52:05;;;;;;;39.20;21.03;;;1.50;99.90;;;;;;6935889;28;20407;-64
2021/01/23 06:55:51;;;;;;;38.80;20.80;;;1.60;99.90;;;;;;6939557;28;20426;-64
2021/01/23 06:59:27;;;;;;;39.92;21.63;;;1.60;99.90;;;;;;6910459;28;20410;-63
2021/01/23 07:02:48;;;;;;;39.58;21.70;;;1.60;99.90;;;;;;6918790;28;20974;-64
2021/01/23 07:06:09;;;;;;;39.35;21.38;;;1.60;99.90;;;;;;6919257;28;20410;-62
2021/01/23 07:09:48;;;;;;;42.03;22.00;;;1.70;99.90;;;;;;6929416;28;20399;-62
2021/01/23 07:13:09;;;;;;;37.60;21.25;;;1.50;99.90;;;;;;6939012;28;20425;-63
2021/01/23 07:16:32;;;;;;;42.00;21.90;;;1.60;99.90;;;;;;6949246;28;20505;-63
2021/01/23 07:19:54;;;;;;;36.90;21.02;;;1.60;99.90;;;;;;6937929;28;20414;-64
2021/01/23 07:23:15;;;;;;;36.08;20.67;;;1.60;99.90;;;;;;6931255;28;20399;-63
2021/01/23 07:26:37;;;;;;;37.20;20.50;;;1.70;99.90;;;;;;6923906;28;20457;-62
2021/01/23 07:29:58;;;;;;;40.22;21.90;;;1.60;99.90;;;;;;6926768;28;20437;-65
2021/01/23 07:33:32;;;;;;;39.78;21.40;;;1.60;99.90;;;;;;6927576;28;20911;-65
2021/01/23 07:36:53;;;;;;;38.50;20.90;;;1.40;99.90;;;;;;6936016;28;20771;-64
2021/01/23 07:40:21;;;;;;;37.25;20.80;;;1.40;99.90;;;;;;6935115;28;20418;-61
2021/01/23 07:43:42;;;;;;;40.65;21.27;;;1.40;99.90;;;;;;6945158;28;20897;-63
2021/01/23 07:47:03;;;;;;;42.17;22.40;;;1.50;99.90;;;;;;6924983;28;20417;-58
2021/01/23 07:50:24;;;;;;;40.70;21.93;;;1.50;99.90;;;;;;6925293;28;20791;-60
2021/01/23 07:54:08;;;;;;;39.28;20.90;;;1.60;99.90;;;;;;6969194;28;20500;-59
2021/01/23 07:57:29;;;;;;;41.58;22.35;;;1.80;99.90;;;;;;6959031;28;20488;-63
2021/01/23 08:00:50;;;;;;;37.13;20.80;;;1.80;99.90;;;;;;6954797;28;20505;-64
2021/01/23 08:04:34;;;;;;;38.53;21.40;;;1.80;99.90;;;;;;6939095;28;20397;-63
2021/01/23 08:07:55;;;;;;;42.42;22.48;;;1.90;99.90;;;;;;6942188;28;20803;-63
2021/01/23 08:11:37;;;;;;;38.33;21.85;;;1.90;99.90;;;;;;6930122;28;20404;-62
2021/01/23 08:14:59;;;;;;;36.43;21.07;;;2.00;99.90;;;;;;6930864;28;20982;-62
2021/01/23 08:18:21;;;;;;;38.95;22.20;;;2.00;99.90;;;;;;6940251;28;20469;-62
2021/01/23 08:21:42;;;;;;;41.15;22.50;;;2.10;99.90;;;;;;6949481;28;20455;-61
2021/01/23 08:25:22;;;;;;;39.45;22.70;;;2.20;99.90;;;;;;6959945;28;20761;-62
2021/01/23 08:28:46;;;;;;;43.22;22.75;;;2.20;99.90;;;;;;6949706;28;20935;-64
2021/01/23 08:32:07;;;;;;;35.97;21.67;;;2.20;99.90;;;;;;6928889;28;20422;-63
2021/01/23 08:35:28;;;;;;;40.20;22.70;;;2.20;99.90;;;;;;6947620;28;20436;-65
2021/01/23 08:39:06;;;;;;;40.90;23.07;;;2.20;99.90;;;;;;6932381;28;20414;-64
2021/01/23 08:42:27;;;;;;;39.13;22.10;;;2.30;99.90;;;;;;6928684;28;20422;-64
2021/01/23 08:45:48;;;;;;;38.70;21.67;;;2.40;99.90;;;;;;6924731;28;20413;-65
2021/01/23 08:49:09;;;;;;;44.53;22.77;;;2.40;99.90;;;;;;6938900;28;20485;-62
2021/01/23 08:52:30;;;;;;;38.45;22.15;;;2.50;99.90;;;;;;6936750;28;20425;-60
2021/01/23 08:55:52;;;;;;;40.50;22.08;;;2.50;99.90;;;;;;6935344;28;20501;-62
2021/01/23 08:59:13;;;;;;;40.85;23.05;;;2.70;99.90;;;;;;6951398;28;20413;-63
2021/01/23 09:02:34;;;;;;;41.33;22.80;;;2.80;99.90;;;;;;6940815;28;20764;-62
2021/01/23 09:05:55;;;;;;;40.47;22.20;;;2.80;99.90;;;;;;6944622;28;20399;-65
2021/01/23 09:09:16;;;;;;;36.77;22.10;;;2.80;99.90;;;;;;6927238;28;20406;-61
2021/01/23 09:12:38;;;;;;;37.20;21.97;;;2.80;99.90;;;;;;6937664;28;20876;-64
2021/01/23 09:15:59;;;;;;;39.95;22.58;;;2.90;99.90;;;;;;6952468;28;20881;-64
2021/01/23 09:19:21;;;;;;;42.67;22.73;;;3.00;99.90;;;;;;6939436;28;20422;-62
2021/01/23 09:22:43;;;;;;;40.75;22.30;;;3.00;99.90;;;;;;6918987;28;20509;-63
2021/01/23 09:26:03;;;;;;;38.28;22.67;;;3.00;99.90;;;;;;6926424;28;20400;-63
2021/01/23 09:29:24;;;;;;;37.85;21.77;;;3.00;99.90;;;;;;6934908;28;20423;-62
2021/01/23 09:32:45;;;;;;;38.60;22.17;;;3.10;99.90;;;;;;6931760;28;20405;-62
2021/01/23 09:36:07;;;;;;;36.93;21.80;;;3.20;99.90;;;;;;6946972;28;20482;-64
2021/01/23 09:39:30;;;;;;;38.28;22.45;;;3.30;99.90;;;;;;6931927;28;20399;-64
2021/01/23 09:42:51;;;;;;;37.30;22.50;;;3.40;99.90;;;;;;6950537;28;20423;-63
2021/01/23 09:46:12;;;;;;;35.92;22.50;;;3.60;99.90;;;;;;6947324;28;20994;-64
2021/01/23 09:49:32;;;;;;;38.88;22.60;;;3.70;99.90;;;;;;6940558;28;20433;-64
2021/01/23 09:52:53;;;;;;;38.05;22.42;;;3.80;99.90;;;;;;6941414;28;20414;-64
2021/01/23 09:56:14;;;;;;;35.70;21.90;;;3.90;99.90;;;;;;6925595;28;20418;-64
2021/01/23 09:59:37;;;;;;;38.37;22.23;;;3.90;99.90;;;;;;6943917;28;20434;-65
2021/01/23 10:02:59;;;;;;;36.90;21.33;;;4.00;99.90;;;;;;6933284;28;20425;-63
2021/01/23 10:06:20;;;;;;;37.42;22.10;;;3.90;99.90;;;;;;6938632;28;20450;-65
2021/01/23 10:09:41;;;;;;;34.88;21.27;;;3.90;99.90;;;;;;6941934;28;20935;-63
2021/01/23 10:13:02;;;;;;;38.83;23.20;;;3.90;99.90;;;;;;6926946;28;20906;-63
2021/01/23 10:16:24;;;;;;;36.90;22.23;;;4.00;99.90;;;;;;6922848;28;20938;-62
2021/01/23 10:19:45;;;;;;;37.85;22.50;;;4.00;99.90;;;;;;6939917;28;20401;-62
2021/01/23 10:23:06;;;;;;;37.47;22.40;;;4.30;99.90;;;;;;6940813;28;20457;-62
2021/01/23 10:26:27;;;;;;;38.77;22.50;;;4.30;99.90;;;;;;6947391;28;20952;-64
2021/01/23 10:29:48;;;;;;;36.38;22.10;;;4.40;99.90;;;;;;6937953;28;20404;-63
2021/01/23 10:33:08;;;;;;;36.97;22.60;;;4.50;99.90;;;;;;6943241;28;20403;-62
2021/01/23 10:36:29;;;;;;;36.60;21.13;;;4.70;99.90;;;;;;6915568;28;20411;-63
2021/01/23 10:39:50;;;;;;;35.72;21.55;;;5.00;99.90;;;;;;6925957;28;20406;-63
2021/01/23 10:43:11;;;;;;;34.55;21.23;;;4.90;99.90;;;;;;6924981;28;20411;-64
2021/01/23 10:46:32;;;;;;;34.88;21.35;;;4.90;99.90;;;;;;6920851;28;20429;-63
2021/01/23 10:49:53;;;;;;;34.78;21.08;;;5.00;99.90;;;;;;6936764;28;20391;-65
2021/01/23 10:53:15;;;;;;;34.63;21.60;;;5.50;99.90;;;;;;6937146;28;20422;-64
2021/01/23 10:56:36;;;;;;;35.30;20.90;;;5.60;99.90;;;;;;6932614;28;20843;-65
2021/01/23 10:59:56;;;;;;;33.55;21.38;;;5.70;99.90;;;;;;6945862;28;20408;-64
2021/01/23 11:03:17;;;;;;;35.55;21.55;;;5.90;99.90;;;;;;6943381;28;20414;-63
2021/01/23 11:06:38;;;;;;;34.20;21.07;;;6.00;99.90;;;;;;6930547;28;20406;-62
2021/01/23 11:09:59;;;;;;;35.57;21.17;;;6.00;99.90;;;;;;6922376;28;20403;-62
2021/01/23 11:13:20;;;;;;;33.60;21.30;;;6.00;99.90;;;;;;6942627;28;20416;-60
2021/01/23 11:16:41;;;;;;;34.60;21.55;;;5.80;99.90;;;;;;6921957;28;20422;-63
2021/01/23 11:20:02;;;;;;;32.38;20.60;;;6.20;99.90;;;;;;6920106;28;20407;-61
2021/01/23 11:23:23;;;;;;;30.67;20.48;;;6.50;99.90;;;;;;6939724;28;20407;-63
2021/01/23 11:26:44;;;;;;;30.10;20.98;;;7.10;99.90;;;;;;6921269;28;20421;-64
2021/01/23 11:30:05;;;;;;;32.23;20.40;;;7.50;99.90;;;;;;6929530;28;20401;-62
2021/01/23 11:33:26;;;;;;;32.33;20.10;;;7.60;99.90;;;;;;6957501;28;20401;-63
2021/01/23 11:36:48;;;;;;;32.83;19.60;;;7.70;99.90;;;;;;6921588;28;21199;-63
2021/01/23 11:40:09;;;;;;;32.22;20.00;;;8.50;99.90;;;;;;6925783;28;20418;-64
2021/01/23 11:43:30;;;;;;;30.65;19.00;;;9.90;99.90;;;;;;6932480;28;20814;-64
2021/01/23 11:46:51;;;;;;;26.88;18.00;;;11.30;99.90;;;;;;6948409;28;20411;-65
2021/01/23 11:50:12;;;;;;;26.40;18.10;;;11.60;99.90;;;;;;6932317;28;20754;-65
2021/01/23 11:53:33;;;;;;;24.02;17.25;;;11.80;99.90;;;;;;6943849;28;20815;-61
2021/01/23 11:56:54;;;;;;;25.48;17.88;;;11.80;99.90;;;;;;6922865;28;20486;-61
2021/01/23 12:00:15;;;;;;;24.75;17.48;;;11.70;99.90;;;;;;6943506;28;20430;-61
2021/01/23 12:03:36;;;;;;;23.33;17.42;;;12.60;99.90;;;;;;6951488;28;20395;-60
2021/01/23 12:06:59;;;;;;;23.83;17.55;;;13.70;99.90;;;;;;6933310;28;20426;-65
2021/01/23 12:10:20;;;;;;;24.40;17.10;;;14.30;99.90;;;;;;6927548;28;20422;-65
2021/01/23 12:13:40;;;;;;;24.98;17.90;;;14.50;99.90;;;;;;6958977;28;20407;-64
2021/01/23 12:17:01;;;;;;;24.63;17.70;;;15.30;99.90;;;;;;6963346;28;20498;-65
2021/01/23 12:20:23;;;;;;;23.13;16.75;;;15.60;99.90;;;;;;6932690;28;20769;-64
2021/01/23 12:23:44;;;;;;;23.65;16.98;;;16.30;99.90;;;;;;6957611;28;20737;-65
2021/01/23 12:27:05;;;;;;;26.02;17.33;;;16.40;99.90;;;;;;6949728;28;20911;-65
2021/01/23 12:30:26;;;;;;;22.00;15.50;;;17.00;99.90;;;;;;6927093;28;20908;-64
2021/01/23 12:33:47;;;;;;;20.57;14.70;;;16.90;99.90;;;;;;6919737;28;20425;-65
2021/01/23 12:37:07;;;;;;;22.63;16.05;;;14.70;99.90;;;;;;6929604;28;20430;-64
2021/01/23 12:40:28;;;;;;;17.35;13.27;;;12.10;99.90;;;;;;6921333;28;20410;-63
2021/01/23 12:43:49;;;;;;;20.37;13.33;;;10.30;99.90;;;;;;6959557;28;20438;-64
2021/01/23 12:47:10;;;;;;;19.20;12.93;;;9.20;99.90;;;;;;6928378;28;20430;-64
2021/01/23 12:50:31;;;;;;;19.20;13.10;;;8.20;99.90;;;;;;6935967;28;20419;-64
2021/01/23 12:53:52;;;;;;;19.10;12.40;;;7.70;99.90;;;;;;6942144;28;20457;-63
2021/01/23 12:57:12;;;;;;;20.40;12.80;;;7.30;99.90;;;;;;6948882;28;20510;-64
2021/01/23 13:00:33;;;;;;;19.30;13.50;;;7.10;99.90;;;;;;6938571;28;20525;-64
2021/01/23 13:03:54;;;;;;;21.35;13.27;;;6.80;99.90;;;;;;6972358;28;20487;-66
2021/01/23 13:07:15;;;;;;;22.93;13.70;;;7.00;99.90;;;;;;6936210;28;20403;-65
2021/01/23 13:10:38;;;;;;;21.00;13.50;;;7.10;99.90;;;;;;6944734;28;20422;-64
2021/01/23 13:14:00;;;;;;;17.58;12.45;;;7.60;99.90;;;;;;6937731;28;20414;-65
2021/01/23 13:17:20;;;;;;;17.33;12.18;;;7.30;99.90;;;;;;6941068;28;20422;-66
2021/01/23 13:20:41;;;;;;;18.50;12.40;;;6.80;99.90;;;;;;6957081;28;20418;-66
2021/01/23 13:24:03;;;;;;;17.53;11.60;;;6.40;99.90;;;;;;6969707;28;20479;-65
2021/01/23 13:27:24;;;;;;;16.67;11.70;;;6.20;99.90;;;;;;6963254;28;20392;-66
2021/01/23 13:30:45;;;;;;;15.85;10.63;;;6.10;99.90;;;;;;6957245;28;20482;-66
2021/01/23 13:34:06;;;;;;;17.38;11.18;;;5.90;99.90;;;;;;6968388;28;20407;-66
2021/01/23 13:37:27;;;;;;;17.73;10.90;;;5.80;99.90;;;;;;6961830;28;20413;-65
2021/01/23 13:40:48;;;;;;;17.17;10.95;;;5.90;99.90;;;;;;6945298;28;20417;-65
2021/01/23 13:44:09;;;;;;;16.33;11.20;;;6.00;99.90;;;;;;6963811;28;20425;-65
2021/01/23 13:47:36;;;;;;;15.48;11.02;;;6.10;99.90;;;;;;6954785;28;20424;-65
2021/01/23 13:50:57;;;;;;;14.88;10.60;;;6.60;99.90;;;;;;6961947;28;20397;-64
2021/01/23 13:54:17;;;;;;;15.23;10.30;;;7.50;99.90;;;;;;6946637;28;20463;-65
2021/01/23 13:57:38;;;;;;;14.60;10.77;;;8.80;99.90;;;;;;6940790;28;20412;-66
2021/01/23 14:00:59;;;;;;;16.27;10.73;;;10.10;99.90;;;;;;6947653;28;20422;-64
2021/01/23 14:04:20;;;;;;;13.90;9.60;;;10.60;99.90;;;;;;6944753;28;20416;-65
2021/01/23 14:07:41;;;;;;;16.50;11.55;;;10.10;99.90;;;;;;6949044;28;20409;-65
2021/01/23 14:11:02;;;;;;;16.47;12.80;;;9.90;99.90;;;;;;6951839;28;20409;-65
2021/01/23 14:14:22;;;;;;;17.27;13.18;;;10.30;99.90;;;;;;6934388;28;20457;-66
2021/01/23 14:17:43;;;;;;;15.23;12.15;;;11.00;99.90;;;;;;6953039;28;20408;-65
2021/01/23 14:21:04;;;;;;;14.80;10.80;;;11.70;99.90;;;;;;6947353;28;20449;-66
2021/01/23 14:24:25;;;;;;;17.40;13.20;;;11.40;99.90;;;;;;6951647;28;20492;-66
2021/01/23 14:27:46;;;;;;;17.15;12.77;;;9.90;99.90;;;;;;6956142;28;20847;-65
2021/01/23 14:31:07;;;;;;;13.30;10.00;;;9.10;99.90;;;;;;6935520;28;20979;-65
2021/01/23 14:34:28;;;;;;;16.13;10.40;;;8.20;99.90;;;;;;6948696;28;20462;-65
2021/01/23 14:37:48;;;;;;;15.65;10.60;;;7.70;99.90;;;;;;6952831;28;20757;-65
2021/01/23 14:41:09;;;;;;;14.35;10.65;;;7.30;99.90;;;;;;6949922;28;20420;-65
2021/01/23 14:44:30;;;;;;;14.52;11.13;;;7.00;99.90;;;;;;6959310;28;20445;-65
2021/01/23 14:47:51;;;;;;;16.57;11.63;;;7.10;99.90;;;;;;6947568;28;20403;-65
2021/01/23 14:51:12;;;;;;;15.35;11.00;;;6.90;99.90;;;;;;6950523;28;20413;-65
2021/01/23 14:54:33;;;;;;;13.23;9.85;;;6.80;99.90;;;;;;6930495;28;20416;-64
2021/01/23 14:57:54;;;;;;;15.13;10.45;;;6.60;99.90;;;;;;6958172;28;20471;-64
2021/01/23 15:01:15;;;;;;;15.77;10.98;;;6.50;99.90;;;;;;6928080;28;20420;-64
2021/01/23 15:04:36;;;;;;;14.38;10.10;;;6.50;99.90;;;;;;6941675;28;20526;-65
2021/01/23 15:07:56;;;;;;;12.90;9.53;;;6.40;99.90;;;;;;6950030;28;20786;-65
2021/01/23 15:11:17;;;;;;;14.32;9.27;;;6.20;99.90;;;;;;6961282;28;20400;-65
2021/01/23 15:14:38;;;;;;;12.63;9.30;;;6.20;99.90;;;;;;6949507;28;20416;-65
2021/01/23 15:17:59;;;;;;;13.77;9.18;;;6.10;99.90;;;;;;6967048;28;20921;-64
2021/01/23 15:21:20;;;;;;;13.83;10.80;;;6.10;99.90;;;;;;6934681;28;20440;-64
2021/01/23 15:24:42;;;;;;;14.23;10.10;;;5.90;99.90;;;;;;6956501;28;20427;-63
2021/01/23 15:28:03;;;;;;;15.45;10.77;;;5.90;99.90;;;;;;6950368;28;20415;-64
2021/01/23 15:31:24;;;;;;;14.00;10.05;;;5.90;99.90;;;;;;6961968;28;20439;-64
2021/01/23 15:34:44;;;;;;;14.70;10.13;;;5.80;99.90;;;;;;6964955;28;20387;-65
2021/01/23 15:38:05;;;;;;;15.03;11.80;;;5.70;99.90;;;;;;6938186;28;20413;-64
2021/01/23 15:41:26;;;;;;;14.00;9.70;;;5.70;99.90;;;;;;6927056;28;20418;-64
2021/01/23 15:44:47;;;;;;;15.40;9.10;;;5.70;99.90;;;;;;6936000;28;20409;-65
2021/01/23 15:48:08;;;;;;;12.65;9.05;;;5.70;99.90;;;;;;6924162;28;20442;-65
2021/01/23 15:51:29;;;;;;;19.90;14.48;;;5.50;99.90;;;;;;6934070;28;20502;-64
2021/01/23 15:54:50;;;;;;;13.03;9.30;;;5.50;99.90;;;;;;6929465;28;20417;-65
2021/01/23 15:58:11;;;;;;;12.60;8.73;;;5.40;99.90;;;;;;6925390;28;20854;-67
2021/01/23 16:01:31;;;;;;;12.93;8.60;;;5.50;99.90;;;;;;6938091;28;20423;-66
2021/01/23 16:04:52;;;;;;;13.25;9.20;;;5.40;99.90;;;;;;6939729;28;20415;-66
2021/01/23 16:08:13;;;;;;;13.30;9.60;;;5.50;99.90;;;;;;6948648;28;20388;-67
2021/01/23 16:11:34;;;;;;;15.03;11.13;;;5.30;99.90;;;;;;6922986;28;20403;-68
2021/01/23 16:14:56;;;;;;;12.55;9.02;;;5.30;99.90;;;;;;6923324;28;20760;-67
2021/01/23 16:18:18;;;;;;;26.63;23.73;;;5.40;99.90;;;;;;6926594;28;20414;-67
2021/01/23 16:21:38;;;;;;;13.38;9.10;;;5.30;99.90;;;;;;6920935;28;20423;-68
2021/01/23 16:25:00;;;;;;;16.30;9.50;;;5.20;99.90;;;;;;6936916;28;20398;-67
2021/01/23 16:28:22;;;;;;;12.90;9.03;;;5.10;99.90;;;;;;6924376;28;20470;-67
2021/01/23 16:31:43;;;;;;;13.02;8.73;;;5.20;99.90;;;;;;6937947;28;20403;-67
2021/01/23 16:35:06;;;;;;;13.68;8.50;;;5.30;99.90;;;;;;6933586;28;20760;-65
2021/01/23 16:38:27;;;;;;;12.60;8.35;;;5.10;99.90;;;;;;6952825;28;20502;-65
2021/01/23 16:41:48;;;;;;;12.67;8.50;;;5.00;99.90;;;;;;6935332;28;20507;-65
2021/01/23 16:45:09;;;;;;;13.10;8.20;;;5.10;99.90;;;;;;6926056;28;20399;-64
2021/01/23 16:48:30;;;;;;;13.23;8.43;;;5.10;99.90;;;;;;6927463;28;20415;-64
2021/01/23 16:51:51;;;;;;;11.40;8.60;;;5.10;99.90;;;;;;6916810;28;21032;-64
2021/01/23 16:55:12;;;;;;;12.05;8.15;;;5.10;99.90;;;;;;6914576;28;20508;-64
2021/01/23 16:58:34;;;;;;;14.02;8.52;;;5.10;99.90;;;;;;6930562;28;20497;-63
2021/01/23 17:01:54;;;;;;;11.77;8.98;;;5.10;99.90;;;;;;6931242;28;20419;-63
2021/01/23 17:05:16;;;;;;;13.40;10.02;;;5.00;99.90;;;;;;6941415;28;20407;-64
2021/01/23 17:08:37;;;;;;;22.77;18.85;;;4.90;99.90;;;;;;6929014;28;20402;-62
2021/01/23 17:11:59;;;;;;;14.07;9.73;;;5.10;99.90;;;;;;6935091;28;20415;-64
2021/01/23 17:15:21;;;;;;;24.13;20.00;;;5.10;99.90;;;;;;6948321;28;20415;-63
2021/01/23 17:18:42;;;;;;;24.40;15.83;;;5.10;99.90;;;;;;6946135;28;20895;-64
2021/01/23 17:22:03;;;;;;;22.88;18.10;;;5.10;99.90;;;;;;6930462;28;20569;-64